sensor_id;sensor_type;location;lat;lon;timestamp;pressure;altitude;pressure_sealevel;temperature;humidity
25650;BME280;13505;45.196;5.696;2023-03-24T05:02:52;98806.88;;;13.32;73.95
25650;BME280;13505;45.196;5.696;2023-03-24T05:07:43;98830.53;;;13.49;73.03
25650;BME280;13505;45.196;5.696;2023-03-24T05:12:33;98816.03;;;13.55;72.00
25650;BME280;13505;45.196;5.696;2023-03-24T05:17:23;98800.31;;;13.52;72.36
25650;BME280;13505;45.196;5.696;2023-03-24T05:22:14;98805.25;;;13.58;73.13
25650;BME280;13505;45.196;5.696;2023-03-24T05:27:04;98803.84;;;13.52;73.56
25650;BME280;13505;45.196;5.696;2023-03-24T05:31:55;98802.88;;;13.53;73.68
25650;BME280;13505;45.196;5.696;2023-03-24T05:36:45;98847.34;;;13.48;73.48
25650;BME280;13505;45.196;5.696;2023-03-24T05:41:35;98863.53;;;13.29;75.03
25650;BME280;13505;45.196;5.696;2023-03-24T05:46:26;98894.88;;;13.51;73.00
25650;BME280;13505;45.196;5.696;2023-03-24T05:51:16;98915.88;;;13.54;73.86
25650;BME280;13505;45.196;5.696;2023-03-24T05:56:07;98903.19;;;13.45;74.68
25650;BME280;13505;45.196;5.696;2023-03-24T06:01:06;98919.09;;;13.45;75.25
25650;BME280;13505;45.196;5.696;2023-03-24T06:05:56;98926.34;;;13.42;76.43
25650;BME280;13505;45.196;5.696;2023-03-24T06:10:48;98908.66;;;13.42;77.12
25650;BME280;13505;45.196;5.696;2023-03-24T06:15:38;98885.00;;;13.39;78.05
25650;BME280;13505;45.196;5.696;2023-03-24T06:20:31;98879.22;;;13.32;81.14
25650;BME280;13505;45.196;5.696;2023-03-24T06:25:22;98882.06;;;13.29;81.18
25650;BME280;13505;45.196;5.696;2023-03-24T06:30:16;98883.09;;;13.26;82.23
25650;BME280;13505;45.196;5.696;2023-03-24T06:35:07;98875.75;;;13.32;82.19
25650;BME280;13505;45.196;5.696;2023-03-24T06:39:58;98861.47;;;13.34;83.05
25650;BME280;13505;45.196;5.696;2023-03-24T06:44:48;98871.13;;;13.50;83.25
25650;BME280;13505;45.196;5.696;2023-03-24T06:49:40;98889.28;;;13.56;84.81
25650;BME280;13505;45.196;5.696;2023-03-24T06:54:30;98899.59;;;13.61;84.52
25650;BME280;13505;45.196;5.696;2023-03-24T06:59:22;98934.03;;;13.61;81.16
25650;BME280;13505;45.196;5.696;2023-03-24T07:04:13;98940.47;;;13.57;80.72
25650;BME280;13505;45.196;5.696;2023-03-24T07:09:04;98958.25;;;13.54;80.27
25650;BME280;13505;45.196;5.696;2023-03-24T07:13:54;98938.97;;;13.52;80.26
25650;BME280;13505;45.196;5.696;2023-03-24T07:18:46;98954.94;;;13.51;80.77
25650;BME280;13505;45.196;5.696;2023-03-24T07:23:36;98959.78;;;13.44;80.80
25650;BME280;13505;45.196;5.696;2023-03-24T07:28:26;98948.53;;;13.55;80.40
25650;BME280;13505;45.196;5.696;2023-03-24T07:33:17;98947.19;;;13.62;81.49
25650;BME280;13505;45.196;5.696;2023-03-24T07:38:09;98961.97;;;13.66;81.54
25650;BME280;13505;45.196;5.696;2023-03-24T07:43:00;98961.00;;;13.67;82.28
25650;BME280;13505;45.196;5.696;2023-03-24T07:47:51;98984.00;;;13.67;82.28
25650;BME280;13505;45.196;5.696;2023-03-24T07:52:46;98980.78;;;13.62;81.59
25650;BME280;13505;45.196;5.696;2023-03-24T07:57:39;98991.28;;;13.63;82.35
25650;BME280;13505;45.196;5.696;2023-03-24T08:02:30;98976.44;;;13.61;81.42
25650;BME280;13505;45.196;5.696;2023-03-24T08:07:20;98978.97;;;13.62;81.32
25650;BME280;13505;45.196;5.696;2023-03-24T08:12:11;98972.16;;;13.73;80.54
25650;BME280;13505;45.196;5.696;2023-03-24T08:17:01;98988.25;;;13.84;80.57
25650;BME280;13505;45.196;5.696;2023-03-24T08:21:51;98985.03;;;13.93;80.50
25650;BME280;13505;45.196;5.696;2023-03-24T08:26:42;98967.38;;;14.07;79.65
25650;BME280;13505;45.196;5.696;2023-03-24T08:31:36;98957.41;;;14.25;79.15
25650;BME280;13505;45.196;5.696;2023-03-24T08:36:26;98966.31;;;14.79;78.48
25650;BME280;13505;45.196;5.696;2023-03-24T08:41:17;98973.28;;;15.20;76.32
25650;BME280;13505;45.196;5.696;2023-03-24T08:46:08;98963.19;;;15.26;74.78
25650;BME280;13505;45.196;5.696;2023-03-24T08:50:58;98969.56;;;15.23;75.29
25650;BME280;13505;45.196;5.696;2023-03-24T08:55:48;98963.19;;;15.26;75.15
25650;BME280;13505;45.196;5.696;2023-03-24T09:00:39;98977.84;;;15.18;73.53
25650;BME280;13505;45.196;5.696;2023-03-24T09:05:30;98956.69;;;15.04;72.91
25650;BME280;13505;45.196;5.696;2023-03-24T09:10:20;98946.50;;;14.98;73.11
25650;BME280;13505;45.196;5.696;2023-03-24T09:15:12;98963.19;;;15.00;74.02
25650;BME280;13505;45.196;5.696;2023-03-24T09:20:04;98962.09;;;14.89;73.24
25650;BME280;13505;45.196;5.696;2023-03-24T09:24:58;98964.72;;;14.76;72.96
25650;BME280;13505;45.196;5.696;2023-03-24T09:29:48;98969.28;;;14.74;73.26
25650;BME280;13505;45.196;5.696;2023-03-24T09:34:38;98960.72;;;14.69;72.30
25650;BME280;13505;45.196;5.696;2023-03-24T09:39:29;98963.97;;;14.74;72.47
25650;BME280;13505;45.196;5.696;2023-03-24T09:49:19;98975.06;;;14.94;71.33
25650;BME280;13505;45.196;5.696;2023-03-24T09:54:25;98964.44;;;15.07;69.74
25650;BME280;13505;45.196;5.696;2023-03-24T09:59:20;98973.50;;;15.30;69.78
25650;BME280;13505;45.196;5.696;2023-03-24T10:04:16;98964.91;;;15.53;67.67
25650;BME280;13505;45.196;5.696;2023-03-24T10:19:41;98983.25;;;15.95;65.55
25650;BME280;13505;45.196;5.696;2023-03-24T10:24:54;98968.88;;;16.10;65.02
25650;BME280;13505;45.196;5.696;2023-03-24T10:29:51;98973.09;;;16.13;63.96
25650;BME280;13505;45.196;5.696;2023-03-24T10:34:47;98967.03;;;16.11;63.92
25650;BME280;13505;45.196;5.696;2023-03-24T10:39:37;98976.28;;;16.18;63.16
25650;BME280;13505;45.196;5.696;2023-03-24T10:44:28;98967.44;;;16.17;63.18
25650;BME280;13505;45.196;5.696;2023-03-24T10:49:23;98962.69;;;16.10;63.43
25650;BME280;13505;45.196;5.696;2023-03-24T10:54:24;98980.69;;;16.06;63.35
25650;BME280;13505;45.196;5.696;2023-03-24T10:59:35;98952.69;;;16.13;62.55
25650;BME280;13505;45.196;5.696;2023-03-24T11:04:28;98953.31;;;16.17;62.55
25650;BME280;13505;45.196;5.696;2023-03-24T11:09:21;98957.44;;;16.21;63.05
25650;BME280;13505;45.196;5.696;2023-03-24T11:14:23;98962.75;;;16.21;62.40
25650;BME280;13505;45.196;5.696;2023-03-24T11:19:22;98961.03;;;16.33;62.66
25650;BME280;13505;45.196;5.696;2023-03-24T11:24:15;98943.75;;;16.39;62.74
25650;BME280;13505;45.196;5.696;2023-03-24T11:29:13;98952.97;;;16.46;62.34
25650;BME280;13505;45.196;5.696;2023-03-24T11:34:19;98944.97;;;16.46;61.97
25650;BME280;13505;45.196;5.696;2023-03-24T11:39:21;98940.22;;;16.38;61.57
25650;BME280;13505;45.196;5.696;2023-03-24T11:44:20;98935.81;;;16.50;62.23
25650;BME280;13505;45.196;5.696;2023-03-24T11:49:15;98936.47;;;16.65;61.61
25650;BME280;13505;45.196;5.696;2023-03-24T11:54:16;98931.88;;;16.67;61.12
25650;BME280;13505;45.196;5.696;2023-03-24T12:25:28;98903.34;;;16.45;61.63
25650;BME280;13505;45.196;5.696;2023-03-24T12:36:03;98918.34;;;16.46;61.80
25650;BME280;13505;45.196;5.696;2023-03-24T12:56:34;98904.34;;;15.95;67.61
25650;BME280;13505;45.196;5.696;2023-03-24T13:01:40;98921.16;;;15.83;69.85
25650;BME280;13505;45.196;5.696;2023-03-24T13:06:36;98927.97;;;15.74;71.94
25650;BME280;13505;45.196;5.696;2023-03-24T13:11:35;98917.53;;;15.71;71.96
25650;BME280;13505;45.196;5.696;2023-03-24T13:16:30;98910.31;;;15.73;71.45
25650;BME280;13505;45.196;5.696;2023-03-24T13:21:23;98887.94;;;15.88;70.96
25650;BME280;13505;45.196;5.696;2023-03-24T13:26:37;98931.19;;;16.03;72.18
25650;BME280;13505;45.196;5.696;2023-03-24T13:32:02;98917.66;;;15.69;70.07
25650;BME280;13505;45.196;5.696;2023-03-24T13:36:55;98902.41;;;15.84;69.38
25650;BME280;13505;45.196;5.696;2023-03-24T13:41:51;98896.41;;;16.07;70.17
25650;BME280;13505;45.196;5.696;2023-03-24T13:46:42;98902.81;;;16.04;68.30
25650;BME280;13505;45.196;5.696;2023-03-24T13:51:34;98892.31;;;16.14;68.20
25650;BME280;13505;45.196;5.696;2023-03-24T14:02:09;98883.50;;;16.38;66.79
25650;BME280;13505;45.196;5.696;2023-03-24T14:06:58;98865.84;;;16.37;67.74
25650;BME280;13505;45.196;5.696;2023-03-24T14:12:07;98868.75;;;16.45;67.44
25650;BME280;13505;45.196;5.696;2023-03-24T14:17:14;98864.69;;;16.64;64.84
25650;BME280;13505;45.196;5.696;2023-03-24T14:22:14;98868.84;;;16.68;64.61
25650;BME280;13505;45.196;5.696;2023-03-24T14:27:41;98857.44;;;16.66;64.76
25650;BME280;13505;45.196;5.696;2023-03-24T14:32:37;98856.34;;;16.68;64.30
25650;BME280;13505;45.196;5.696;2023-03-24T14:37:29;98839.56;;;16.68;64.25
25650;BME280;13505;45.196;5.696;2023-03-24T14:47:40;98841.09;;;16.70;64.83
25650;BME280;13505;45.196;5.696;2023-03-24T14:52:39;98829.03;;;16.78;64.11
25650;BME280;13505;45.196;5.696;2023-03-24T14:57:43;98826.59;;;16.74;63.23
25650;BME280;13505;45.196;5.696;2023-03-24T15:12:53;98797.03;;;16.43;63.96
25650;BME280;13505;45.196;5.696;2023-03-24T15:17:44;98802.97;;;16.47;64.74
25650;BME280;13505;45.196;5.696;2023-03-24T15:22:40;98792.16;;;16.49;65.39
25650;BME280;13505;45.196;5.696;2023-03-24T15:27:31;98782.88;;;16.54;66.13
25650;BME280;13505;45.196;5.696;2023-03-24T15:32:24;98806.69;;;16.44;65.23
25650;BME280;13505;45.196;5.696;2023-03-24T15:37:36;98803.44;;;16.52;64.84
25650;BME280;13505;45.196;5.696;2023-03-24T15:42:28;98799.81;;;16.53;64.00
25650;BME280;13505;45.196;5.696;2023-03-24T15:47:26;98803.81;;;16.59;63.47
25650;BME280;13505;45.196;5.696;2023-03-24T15:52:25;98802.72;;;16.50;63.58
25650;BME280;13505;45.196;5.696;2023-03-24T15:57:21;98805.28;;;16.52;63.32
25650;BME280;13505;45.196;5.696;2023-03-24T16:02:53;98804.16;;;16.54;63.25
25650;BME280;13505;45.196;5.696;2023-03-24T16:07:51;98825.19;;;16.46;63.36
25650;BME280;13505;45.196;5.696;2023-03-24T16:12:42;98825.56;;;16.41;63.62
25650;BME280;13505;45.196;5.696;2023-03-24T16:17:32;98819.97;;;16.33;63.94
25650;BME280;13505;45.196;5.696;2023-03-24T16:22:23;98842.97;;;16.34;63.56
25650;BME280;13505;45.196;5.696;2023-03-24T16:27:13;98839.41;;;16.22;63.73
25650;BME280;13505;45.196;5.696;2023-03-24T16:32:04;98863.34;;;16.22;63.47
25650;BME280;13505;45.196;5.696;2023-03-24T16:36:55;98886.50;;;16.33;62.72
25650;BME280;13505;45.196;5.696;2023-03-24T16:41:46;98875.91;;;16.20;63.37
25650;BME280;13505;45.196;5.696;2023-03-24T16:46:37;98903.03;;;16.25;63.47
25650;BME280;13505;45.196;5.696;2023-03-24T16:51:27;98882.31;;;16.17;64.14
25650;BME280;13505;45.196;5.696;2023-03-24T16:56:20;98880.84;;;16.13;64.57
25650;BME280;13505;45.196;5.696;2023-03-24T17:01:44;98886.94;;;16.02;65.15
25650;BME280;13505;45.196;5.696;2023-03-24T17:06:37;98884.41;;;15.88;69.23
25650;BME280;13505;45.196;5.696;2023-03-24T17:11:30;98931.56;;;15.73;72.16
25650;BME280;13505;45.196;5.696;2023-03-24T17:16:21;98937.44;;;15.52;74.82
25650;BME280;13505;45.196;5.696;2023-03-24T17:21:16;98972.88;;;15.40;75.52
25650;BME280;13505;45.196;5.696;2023-03-24T17:26:08;98992.59;;;15.10;81.42
25650;BME280;13505;45.196;5.696;2023-03-24T17:30:59;98999.78;;;14.95;82.33
25650;BME280;13505;45.196;5.696;2023-03-24T17:35:50;99020.47;;;14.76;86.78
25650;BME280;13505;45.196;5.696;2023-03-24T17:40:42;99019.84;;;14.58;89.23
25650;BME280;13505;45.196;5.696;2023-03-24T17:45:32;99018.53;;;14.51;90.52
25650;BME280;13505;45.196;5.696;2023-03-24T17:50:23;99052.00;;;14.39;91.39
25650;BME280;13505;45.196;5.696;2023-03-24T17:55:15;99046.69;;;14.39;92.06
25650;BME280;13505;45.196;5.696;2023-03-24T18:00:07;99039.91;;;14.35;92.15
25650;BME280;13505;45.196;5.696;2023-03-24T18:05:01;99070.22;;;14.31;92.25
25650;BME280;13505;45.196;5.696;2023-03-24T18:09:52;99082.16;;;14.23;94.30
25650;BME280;13505;45.196;5.696;2023-03-24T18:14:43;99101.97;;;14.18;97.34
25650;BME280;13505;45.196;5.696;2023-03-24T18:19:34;99102.81;;;13.89;97.67
25650;BME280;13505;45.196;5.696;2023-03-24T18:24:25;99087.97;;;14.16;95.37
25650;BME280;13505;45.196;5.696;2023-03-24T18:29:15;99086.59;;;14.23;94.44
25650;BME280;13505;45.196;5.696;2023-03-24T18:34:06;99097.88;;;14.27;94.75
25650;BME280;13505;45.196;5.696;2023-03-24T18:39:02;99087.38;;;14.25;94.30
25650;BME280;13505;45.196;5.696;2023-03-24T18:43:54;99096.38;;;14.22;94.50
25650;BME280;13505;45.196;5.696;2023-03-24T18:48:45;99100.75;;;14.23;94.73
25650;BME280;13505;45.196;5.696;2023-03-24T18:53:37;99100.53;;;14.27;95.81
25650;BME280;13505;45.196;5.696;2023-03-24T18:58:27;99098.56;;;14.16;98.12
25650;BME280;13505;45.196;5.696;2023-03-24T19:03:18;99106.41;;;14.17;98.19
25650;BME280;13505;45.196;5.696;2023-03-24T19:08:09;99116.09;;;14.18;97.74
25650;BME280;13505;45.196;5.696;2023-03-24T19:13:03;99100.91;;;14.06;100.00
25650;BME280;13505;45.196;5.696;2023-03-24T19:17:55;99113.63;;;14.01;100.00
25650;BME280;13505;45.196;5.696;2023-03-24T19:22:45;99132.66;;;14.07;100.00
25650;BME280;13505;45.196;5.696;2023-03-24T19:27:36;99113.03;;;13.95;100.00
25650;BME280;13505;45.196;5.696;2023-03-24T19:32:26;99102.06;;;13.87;100.00
25650;BME280;13505;45.196;5.696;2023-03-24T19:37:17;99113.03;;;13.81;100.00
25650;BME280;13505;45.196;5.696;2023-03-24T19:42:09;99120.78;;;13.84;100.00
25650;BME280;13505;45.196;5.696;2023-03-24T19:46:59;99118.16;;;13.84;100.00
25650;BME280;13505;45.196;5.696;2023-03-24T19:51:49;99127.91;;;13.84;100.00
25650;BME280;13505;45.196;5.696;2023-03-24T19:56:40;99141.94;;;13.86;100.00
25650;BME280;13505;45.196;5.696;2023-03-24T20:01:30;99151.09;;;13.80;100.00
25650;BME280;13505;45.196;5.696;2023-03-24T20:06:24;99160.00;;;13.79;100.00
25650;BME280;13505;45.196;5.696;2023-03-24T20:11:14;99146.94;;;13.76;100.00
25650;BME280;13505;45.196;5.696;2023-03-24T20:16:05;99155.91;;;13.73;100.00
25650;BME280;13505;45.196;5.696;2023-03-24T20:20:56;99181.41;;;13.76;100.00
25650;BME280;13505;45.196;5.696;2023-03-24T20:25:48;99181.09;;;13.80;100.00
25650;BME280;13505;45.196;5.696;2023-03-24T20:30:38;99187.03;;;13.70;100.00
25650;BME280;13505;45.196;5.696;2023-03-24T20:35:29;99182.47;;;13.41;100.00
25650;BME280;13505;45.196;5.696;2023-03-24T20:40:20;99180.75;;;13.56;100.00
25650;BME280;13505;45.196;5.696;2023-03-24T20:45:10;99189.56;;;13.57;100.00
25650;BME280;13505;45.196;5.696;2023-03-24T20:50:01;99199.91;;;13.45;100.00
25650;BME280;13505;45.196;5.696;2023-03-24T20:54:51;99200.00;;;13.44;100.00
25650;BME280;13505;45.196;5.696;2023-03-24T20:59:43;99207.59;;;13.50;100.00
25650;BME280;13505;45.196;5.696;2023-03-24T21:04:35;99226.06;;;13.51;100.00
25650;BME280;13505;45.196;5.696;2023-03-24T21:09:26;99215.47;;;13.51;100.00
25650;BME280;13505;45.196;5.696;2023-03-24T21:14:16;99220.66;;;13.53;100.00
25650;BME280;13505;45.196;5.696;2023-03-24T21:19:07;99220.84;;;13.50;100.00
25650;BME280;13505;45.196;5.696;2023-03-24T21:23:59;99216.69;;;13.46;100.00
25650;BME280;13505;45.196;5.696;2023-03-24T21:28:49;99234.28;;;13.47;100.00
25650;BME280;13505;45.196;5.696;2023-03-24T21:33:41;99242.72;;;13.37;100.00
25650;BME280;13505;45.196;5.696;2023-03-24T21:38:33;99248.28;;;13.33;100.00
25650;BME280;13505;45.196;5.696;2023-03-24T21:43:24;99251.13;;;13.14;100.00
25650;BME280;13505;45.196;5.696;2023-03-24T21:48:16;99248.34;;;13.15;100.00
25650;BME280;13505;45.196;5.696;2023-03-24T21:53:07;99263.84;;;13.07;100.00
25650;BME280;13505;45.196;5.696;2023-03-24T21:58:03;99270.41;;;13.00;100.00
25650;BME280;13505;45.196;5.696;2023-03-24T22:02:54;99283.19;;;12.91;100.00
25650;BME280;13505;45.196;5.696;2023-03-24T22:07:48;99296.75;;;12.85;100.00
25650;BME280;13505;45.196;5.696;2023-03-24T22:12:40;99301.09;;;12.70;100.00
25650;BME280;13505;45.196;5.696;2023-03-24T22:17:32;99294.00;;;12.70;100.00
25650;BME280;13505;45.196;5.696;2023-03-24T22:22:22;99306.13;;;12.75;100.00
25650;BME280;13505;45.196;5.696;2023-03-24T22:27:12;99291.59;;;12.66;100.00
25650;BME280;13505;45.196;5.696;2023-03-24T22:32:03;99291.59;;;12.66;100.00
25650;BME280;13505;45.196;5.696;2023-03-24T22:36:53;99300.81;;;12.59;100.00
25650;BME280;13505;45.196;5.696;2023-03-24T22:41:44;99310.81;;;12.52;100.00
25650;BME280;13505;45.196;5.696;2023-03-24T22:46:34;99321.28;;;12.55;100.00
25650;BME280;13505;45.196;5.696;2023-03-24T22:51:24;99321.75;;;12.46;100.00
25650;BME280;13505;45.196;5.696;2023-03-24T22:56:15;99329.75;;;12.44;100.00
